Time;durP1;ratioP1;P1;durP2;ratioP2;P2;SDS_P1;SDS_P2;PMS_P1;PMS_P2;Temp;Humidity;BMP_temperature;BMP_pressure;BME280_temperature;BME280_humidity;BME280_pressure;Samples;Min_cycle;Max_cycle;Signal;HPM_P1;HPM_P2
2022/10/17 00:01:04;;;;;;;2.60;1.10;;;16.10;99.90;;;;;;5032235;28;20197;-68
2022/10/17 00:03:31;;;;;;;1.10;1.00;;;16.10;99.90;;;;;;5042878;28;20220;-70
2022/10/17 00:05:58;;;;;;;1.00;1.00;;;16.00;99.90;;;;;;5056336;28;20286;-69
2022/10/17 00:08:24;;;;;;;1.03;0.93;;;16.10;99.90;;;;;;5045981;28;20244;-69
2022/10/17 00:10:59;;;;;;;0.97;0.97;;;16.20;99.90;;;;;;5046869;28;20251;-71
2022/10/17 00:13:27;;;;;;;1.37;1.10;;;16.00;99.90;;;;;;5037808;28;20558;-69
2022/10/17 00:15:54;;;;;;;0.97;0.77;;;16.20;99.90;;;;;;5031507;28;20207;-70
2022/10/17 00:18:21;;;;;;;0.90;0.90;;;16.10;99.90;;;;;;5033754;28;20232;-68
2022/10/17 00:20:48;;;;;;;0.90;0.90;;;16.20;99.90;;;;;;5031882;28;20585;-69
2022/10/17 00:23:15;;;;;;;0.80;0.80;;;16.00;99.90;;;;;;5033250;28;20220;-69
2022/10/17 00:25:42;;;;;;;1.97;1.30;;;15.90;99.90;;;;;;5032810;28;20204;-72
2022/10/17 00:28:09;;;;;;;1.23;1.00;;;15.90;99.90;;;;;;5032115;28;20255;-68
2022/10/17 00:30:38;;;;;;;3.23;1.10;;;15.90;99.90;;;;;;5038842;28;20205;-68
2022/10/17 00:33:05;;;;;;;1.10;1.10;;;15.90;99.90;;;;;;5034811;28;20288;-69
2022/10/17 00:35:31;;;;;;;1.03;1.03;;;16.00;99.90;;;;;;5043363;28;20687;-68
2022/10/17 00:37:58;;;;;;;1.17;1.00;;;16.00;99.90;;;;;;5037262;28;20225;-69
2022/10/17 00:40:26;;;;;;;1.10;0.90;;;15.90;99.90;;;;;;5035543;28;20330;-67
2022/10/17 00:42:52;;;;;;;1.37;1.10;;;15.80;99.90;;;;;;5027814;28;20219;-69
2022/10/17 00:45:23;;;;;;;1.23;1.00;;;15.80;99.90;;;;;;5024970;28;20209;-69
2022/10/17 00:47:56;;;;;;;2.43;1.10;;;15.80;99.90;;;;;;5032776;28;20220;-69
2022/10/17 00:50:24;;;;;;;0.90;0.90;;;15.70;99.90;;;;;;5031497;28;20201;-69
2022/10/17 00:52:51;;;;;;;1.03;1.03;;;15.70;99.90;;;;;;5032100;28;20203;-69
2022/10/17 00:55:21;;;;;;;1.37;0.97;;;15.60;99.90;;;;;;5031902;28;20201;-70
2022/10/17 00:57:49;;;;;;;1.70;1.37;;;15.60;99.90;;;;;;5031192;28;20565;-69
2022/10/17 01:00:16;;;;;;;1.03;0.93;;;15.60;99.90;;;;;;5029754;28;20291;-68
2022/10/17 01:02:43;;;;;;;5.10;1.23;;;15.60;99.90;;;;;;5032209;28;20262;-67
2022/10/17 01:05:12;;;;;;;0.90;0.90;;;15.60;99.90;;;;;;5032570;28;20207;-68
2022/10/17 01:07:41;;;;;;;0.90;0.90;;;15.60;99.90;;;;;;5056435;28;20323;-68
2022/10/17 01:10:10;;;;;;;1.20;1.00;;;15.60;99.90;;;;;;5051313;28;20287;-70
2022/10/17 01:12:48;;;;;;;1.00;0.90;;;15.60;99.90;;;;;;5035379;28;20211;-70
2022/10/17 01:15:23;;;;;;;1.00;1.00;;;15.60;99.90;;;;;;5029212;28;20204;-68
2022/10/17 01:17:59;;;;;;;1.20;1.03;;;15.50;99.90;;;;;;5031811;28;20226;-68
2022/10/17 01:20:53;;;;;;;1.70;1.00;;;15.50;99.90;;;;;;5032958;28;20200;-69
2022/10/17 01:23:57;;;;;;;0.90;0.90;;;15.50;99.90;;;;;;5026284;28;20226;-69
2022/10/17 01:26:33;;;;;;;0.90;0.90;;;15.50;99.90;;;;;;5019751;28;20287;-69
2022/10/17 01:29:29;;;;;;;1.53;1.13;;;15.40;99.90;;;;;;5042499;28;20633;-68
2022/10/17 01:32:01;;;;;;;1.63;1.53;;;15.40;99.90;;;;;;5051297;22;20233;-61
2022/10/17 01:34:34;;;;;;;0.90;0.90;;;15.40;99.90;;;;;;5032282;28;20197;-61
2022/10/17 01:37:06;;;;;;;1.03;1.00;;;15.40;99.90;;;;;;5030184;28;20312;-63
2022/10/17 01:39:43;;;;;;;3.70;1.37;;;15.40;99.90;;;;;;5032175;28;20210;-63
2022/10/17 01:42:16;;;;;;;0.80;0.80;;;15.30;99.90;;;;;;5031895;28;20224;-62
2022/10/17 01:44:49;;;;;;;1.60;1.20;;;15.40;99.90;;;;;;5030440;28;20232;-62
2022/10/17 01:47:20;;;;;;;1.90;1.07;;;15.30;99.90;;;;;;5025949;28;20740;-62
2022/10/17 01:49:51;;;;;;;0.90;0.90;;;15.40;99.90;;;;;;5038842;28;20292;-61
2022/10/17 01:52:21;;;;;;;0.93;0.93;;;15.30;99.90;;;;;;5040588;28;20303;-61
2022/10/17 01:54:54;;;;;;;1.80;1.17;;;15.40;99.90;;;;;;5029762;28;20679;-62
2022/10/17 01:57:26;;;;;;;1.17;1.03;;;15.30;99.90;;;;;;5024074;28;20277;-62
2022/10/17 01:59:56;;;;;;;1.87;1.10;;;15.30;99.90;;;;;;5028326;28;20208;-62
2022/10/17 02:02:25;;;;;;;1.40;0.93;;;15.40;99.90;;;;;;5025820;28;20753;-62
2022/10/17 02:04:53;;;;;;;1.20;1.10;;;15.40;99.90;;;;;;5018786;28;20308;-61
2022/10/17 02:07:20;;;;;;;1.23;1.17;;;15.40;99.90;;;;;;5025138;28;20288;-61
2022/10/17 02:09:47;;;;;;;1.37;1.00;;;15.40;99.90;;;;;;5019148;28;20207;-62
2022/10/17 02:12:42;;;;;;;0.73;0.73;;;15.30;99.90;;;;;;5018833;28;20228;-62
2022/10/17 02:15:25;;;;;;;1.27;1.17;;;15.30;99.90;;;;;;5018135;28;20211;-62
2022/10/17 02:18:03;;;;;;;0.77;0.77;;;15.30;99.90;;;;;;5021778;28;20208;-62
2022/10/17 02:20:37;;;;;;;1.10;1.00;;;15.30;99.90;;;;;;5020116;28;20300;-62
2022/10/17 02:23:10;;;;;;;0.93;0.90;;;15.30;99.90;;;;;;5023723;28;20235;-62
2022/10/17 02:25:42;;;;;;;1.10;1.00;;;15.30;99.90;;;;;;5024874;28;20212;-62
2022/10/17 02:28:19;;;;;;;0.80;0.80;;;15.30;99.90;;;;;;5024300;28;20208;-61
2022/10/17 02:30:51;;;;;;;1.20;1.00;;;15.30;99.90;;;;;;5023578;28;20706;-62
2022/10/17 02:33:26;;;;;;;1.10;1.10;;;15.20;99.90;;;;;;5034427;28;20207;-62
2022/10/17 02:35:57;;;;;;;1.10;1.00;;;15.30;99.90;;;;;;5034633;28;20203;-61
2022/10/17 02:38:25;;;;;;;1.63;1.20;;;15.30;99.90;;;;;;5030051;28;20577;-61
2022/10/17 02:40:53;;;;;;;0.83;0.83;;;15.20;99.90;;;;;;5031191;28;20200;-63
2022/10/17 02:43:21;;;;;;;1.20;1.10;;;15.30;99.90;;;;;;5035068;28;20229;-62
2022/10/17 02:45:48;;;;;;;1.00;1.00;;;15.20;99.90;;;;;;5030666;28;20580;-62
2022/10/17 02:48:25;;;;;;;1.00;1.00;;;15.20;99.90;;;;;;5035083;28;20211;-63
2022/10/17 02:50:57;;;;;;;1.43;1.00;;;15.20;99.90;;;;;;5029053;28;20196;-62
2022/10/17 02:53:30;;;;;;;1.37;1.13;;;15.10;99.90;;;;;;5028936;28;20227;-61
2022/10/17 02:56:00;;;;;;;1.10;1.10;;;15.10;99.90;;;;;;5027732;28;20211;-61
2022/10/17 02:58:31;;;;;;;0.90;0.90;;;15.10;99.90;;;;;;5034256;28;20211;-61
2022/10/17 03:00:59;;;;;;;1.17;1.07;;;15.10;99.90;;;;;;5032167;28;20663;-62
2022/10/17 03:03:31;;;;;;;0.80;0.80;;;15.10;99.90;;;;;;5032437;28;20225;-61
2022/10/17 03:05:58;;;;;;;1.70;1.20;;;15.10;99.90;;;;;;5032420;28;20211;-62
2022/10/17 03:08:25;;;;;;;1.53;0.90;;;15.10;99.90;;;;;;5030379;28;20571;-61
2022/10/17 03:10:52;;;;;;;1.27;1.07;;;15.10;99.90;;;;;;5033757;28;20667;-62
2022/10/17 03:13:19;;;;;;;1.17;1.17;;;15.10;99.90;;;;;;5030712;28;20206;-62
2022/10/17 03:15:46;;;;;;;1.00;1.00;;;15.10;99.90;;;;;;5034628;28;20726;-63
2022/10/17 03:18:14;;;;;;;1.30;1.20;;;15.10;99.90;;;;;;5031022;28;20229;-61
2022/10/17 03:20:42;;;;;;;1.00;1.00;;;15.10;99.90;;;;;;5033681;28;20216;-62
2022/10/17 03:23:09;;;;;;;0.90;0.90;;;15.10;99.90;;;;;;5034713;28;20201;-61
2022/10/17 03:25:35;;;;;;;1.23;0.87;;;15.00;99.90;;;;;;5025504;28;20741;-62
2022/10/17 03:28:04;;;;;;;1.00;0.90;;;15.00;99.90;;;;;;5026706;28;20296;-62
2022/10/17 03:30:31;;;;;;;1.27;1.00;;;15.10;99.90;;;;;;5032311;28;20200;-61
2022/10/17 03:32:58;;;;;;;1.37;0.97;;;15.10;99.90;;;;;;5033639;28;20263;-61
2022/10/17 03:35:25;;;;;;;0.80;0.80;;;15.10;99.90;;;;;;5030882;28;20207;-61
2022/10/17 03:37:55;;;;;;;1.30;1.20;;;15.00;99.90;;;;;;5032847;28;20215;-62
2022/10/17 03:40:22;;;;;;;1.80;1.10;;;15.00;99.90;;;;;;5030032;28;20201;-62
2022/10/17 03:42:49;;;;;;;2.13;1.13;;;15.00;99.90;;;;;;5032000;28;20220;-61
2022/10/17 03:45:16;;;;;;;1.00;0.90;;;14.90;99.90;;;;;;5028840;28;20230;-61
2022/10/17 03:47:42;;;;;;;1.13;1.03;;;14.90;99.90;;;;;;5030530;28;20236;-61
2022/10/17 03:50:10;;;;;;;1.47;1.20;;;14.90;99.90;;;;;;5026008;28;20212;-62
2022/10/17 03:52:36;;;;;;;1.03;1.00;;;14.90;99.90;;;;;;5029866;28;20717;-62
2022/10/17 03:55:05;;;;;;;0.73;0.73;;;14.90;99.90;;;;;;5033801;28;20203;-61
2022/10/17 03:57:35;;;;;;;1.17;1.07;;;14.90;99.90;;;;;;5029655;28;20292;-62
2022/10/17 04:00:03;;;;;;;1.30;1.20;;;14.90;99.90;;;;;;5038004;28;20563;-62
2022/10/17 04:02:30;;;;;;;1.13;1.13;;;14.90;99.90;;;;;;5033225;28;20248;-61
2022/10/17 04:04:56;;;;;;;1.57;1.17;;;15.00;99.90;;;;;;5033629;28;20221;-61
2022/10/17 04:07:23;;;;;;;1.10;1.00;;;15.00;99.90;;;;;;5030513;28;20217;-61
2022/10/17 04:09:50;;;;;;;1.87;1.07;;;15.00;99.90;;;;;;5033433;28;20608;-61
2022/10/17 04:12:18;;;;;;;1.17;1.07;;;14.90;99.90;;;;;;5052270;28;20284;-62
2022/10/17 04:14:45;;;;;;;0.87;0.87;;;15.00;99.90;;;;;;5047104;28;20268;-61
2022/10/17 04:17:12;;;;;;;1.00;1.00;;;15.00;99.90;;;;;;5039131;28;20197;-61
2022/10/17 04:19:39;;;;;;;1.57;1.00;;;15.00;99.90;;;;;;5030268;28;20197;-61
2022/10/17 04:22:07;;;;;;;0.90;0.90;;;15.10;99.90;;;;;;5031900;28;20220;-61
2022/10/17 04:24:34;;;;;;;0.80;0.80;;;15.10;99.90;;;;;;5029083;28;20216;-61
2022/10/17 04:27:00;;;;;;;1.10;1.10;;;15.00;99.90;;;;;;5030346;28;20655;-61
2022/10/17 04:29:29;;;;;;;1.07;1.07;;;15.10;99.90;;;;;;5034071;28;20200;-63
2022/10/17 04:31:56;;;;;;;1.40;1.30;;;15.00;99.90;;;;;;5027848;28;20329;-61
2022/10/17 04:34:22;;;;;;;1.30;1.20;;;15.00;99.90;;;;;;5033547;28;20197;-61
2022/10/17 04:36:50;;;;;;;2.17;1.03;;;15.00;99.90;;;;;;5025941;28;20211;-61
2022/10/17 04:39:17;;;;;;;1.30;1.20;;;15.00;99.90;;;;;;5033824;28;20258;-61
2022/10/17 04:41:44;;;;;;;0.93;0.93;;;15.10;99.90;;;;;;5035042;28;20702;-62
2022/10/17 04:44:11;;;;;;;1.73;1.20;;;15.00;99.90;;;;;;5029529;28;20224;-61
2022/10/17 04:46:40;;;;;;;1.70;1.47;;;15.00;99.90;;;;;;5022116;28;20622;-61
2022/10/17 04:49:06;;;;;;;1.13;1.13;;;14.90;99.90;;;;;;5026684;28;20200;-61
2022/10/17 04:51:33;;;;;;;1.63;1.20;;;14.90;99.90;;;;;;5027327;28;20242;-61
2022/10/17 04:54:00;;;;;;;1.20;1.20;;;14.90;99.90;;;;;;5032678;28;20207;-62
2022/10/17 04:56:27;;;;;;;1.20;1.10;;;14.80;99.90;;;;;;5016264;28;20541;-62
2022/10/17 04:58:54;;;;;;;2.10;1.20;;;14.80;99.90;;;;;;5024008;28;20201;-61
2022/10/17 05:01:22;;;;;;;1.47;1.10;;;14.80;99.90;;;;;;5028480;28;20225;-61
2022/10/17 05:03:56;;;;;;;2.67;1.23;;;14.80;99.90;;;;;;5174020;27;20296;-61
2022/10/17 05:06:26;;;;;;;1.63;1.40;;;14.70;99.90;;;;;;5130723;28;20204;-61
2022/10/17 05:08:53;;;;;;;1.33;1.00;;;14.60;99.90;;;;;;5130138;27;20204;-62
2022/10/17 05:11:22;;;;;;;1.13;1.03;;;14.60;99.90;;;;;;5130168;28;20217;-61
2022/10/17 05:13:53;;;;;;;1.80;1.40;;;14.60;99.90;;;;;;5130187;27;20201;-61
2022/10/17 05:16:20;;;;;;;1.17;1.10;;;14.60;99.90;;;;;;5130951;27;20669;-62
2022/10/17 05:18:49;;;;;;;1.67;1.30;;;14.50;99.90;;;;;;5127329;28;20211;-62
2022/10/17 05:21:18;;;;;;;0.90;0.90;;;14.50;99.90;;;;;;5128850;27;20882;-62
2022/10/17 05:23:45;;;;;;;1.00;1.00;;;14.40;99.90;;;;;;5128198;28;20716;-62
2022/10/17 05:26:12;;;;;;;1.20;1.10;;;14.40;99.90;;;;;;5128847;27;20569;-61
2022/10/17 05:28:39;;;;;;;1.37;1.27;;;14.40;99.90;;;;;;5121967;27;20832;-62
2022/10/17 05:31:08;;;;;;;1.00;1.00;;;14.40;99.90;;;;;;5119169;28;20219;-62
2022/10/17 05:33:36;;;;;;;1.43;1.23;;;14.30;99.90;;;;;;5122612;27;20652;-62
2022/10/17 05:36:03;;;;;;;1.40;1.30;;;14.30;99.90;;;;;;5127925;28;20205;-63
2022/10/17 05:38:31;;;;;;;1.63;1.20;;;14.30;99.90;;;;;;5128865;27;20200;-61
2022/10/17 05:40:58;;;;;;;1.17;1.10;;;14.30;99.90;;;;;;5128304;27;20212;-61
2022/10/17 05:43:26;;;;;;;1.40;1.30;;;14.30;99.90;;;;;;5128648;27;20225;-61
2022/10/17 05:45:53;;;;;;;1.90;1.33;;;14.40;99.90;;;;;;5128691;27;20671;-61
2022/10/17 05:48:20;;;;;;;0.90;0.90;;;14.50;99.90;;;;;;5128541;27;20201;-61
2022/10/17 05:50:47;;;;;;;1.50;1.30;;;14.50;99.90;;;;;;5128171;27;20205;-61
2022/10/17 05:53:14;;;;;;;1.23;1.13;;;14.50;99.90;;;;;;5128234;27;20670;-62
2022/10/17 05:55:43;;;;;;;0.83;0.83;;;14.40;99.90;;;;;;5128084;27;20201;-62
2022/10/17 05:58:09;;;;;;;1.10;1.10;;;14.40;99.90;;;;;;5124394;28;20288;-61
2022/10/17 06:00:36;;;;;;;1.83;1.30;;;14.40;99.90;;;;;;5127892;27;20193;-61
2022/10/17 06:03:03;;;;;;;1.23;1.23;;;14.40;99.90;;;;;;5127316;27;20713;-61
2022/10/17 06:05:30;;;;;;;1.33;1.20;;;14.40;99.90;;;;;;5127148;27;20553;-61
2022/10/17 06:07:57;;;;;;;2.00;1.30;;;14.50;99.90;;;;;;5127538;27;20208;-61
2022/10/17 06:10:24;;;;;;;1.70;1.20;;;14.40;99.90;;;;;;5128699;27;20288;-60
2022/10/17 06:12:52;;;;;;;1.00;1.00;;;14.50;99.90;;;;;;5128203;28;20306;-61
2022/10/17 06:15:19;;;;;;;1.37;1.10;;;14.50;99.90;;;;;;5113855;27;20201;-61
2022/10/17 06:17:45;;;;;;;1.57;1.30;;;14.60;99.90;;;;;;5113939;28;20213;-61
2022/10/17 06:20:12;;;;;;;1.10;1.10;;;14.60;99.90;;;;;;5115736;28;20282;-61
2022/10/17 06:22:39;;;;;;;1.00;1.00;;;14.70;99.90;;;;;;5115241;28;20234;-61
2022/10/17 06:25:06;;;;;;;1.37;1.10;;;14.80;99.90;;;;;;5115301;28;20198;-62
2022/10/17 06:27:33;;;;;;;1.20;1.10;;;14.80;99.90;;;;;;5115762;28;20220;-62
2022/10/17 06:30:01;;;;;;;1.17;1.00;;;14.80;99.90;;;;;;5115187;28;20208;-62
2022/10/17 06:32:28;;;;;;;1.30;1.20;;;14.90;99.90;;;;;;5115128;28;20408;-61
2022/10/17 06:34:55;;;;;;;1.67;1.20;;;15.00;99.90;;;;;;5111967;28;20206;-62
2022/10/17 06:37:22;;;;;;;1.97;1.60;;;15.10;99.90;;;;;;5114336;28;20194;-61
2022/10/17 06:39:49;;;;;;;0.93;0.93;;;15.20;99.90;;;;;;5114970;28;20676;-62
2022/10/17 06:42:15;;;;;;;1.50;1.40;;;15.20;99.90;;;;;;5114698;28;20217;-61
2022/10/17 06:44:42;;;;;;;2.07;1.50;;;15.20;99.90;;;;;;5115259;28;20198;-61
2022/10/17 06:47:11;;;;;;;1.23;1.10;;;15.20;99.90;;;;;;5108380;28;20700;-61
2022/10/17 06:49:37;;;;;;;1.07;1.07;;;15.10;99.90;;;;;;5112656;28;20205;-61
2022/10/17 06:52:04;;;;;;;1.37;1.07;;;15.20;99.90;;;;;;5114137;28;20222;-61
2022/10/17 06:54:31;;;;;;;1.33;1.23;;;15.30;99.90;;;;;;5114440;28;20224;-62
2022/10/17 06:56:58;;;;;;;1.00;1.00;;;15.40;99.90;;;;;;5114920;28;20206;-61
2022/10/17 06:59:25;;;;;;;1.90;1.20;;;15.40;99.90;;;;;;5115284;28;20198;-61
2022/10/17 07:01:52;;;;;;;1.63;1.33;;;15.50;99.90;;;;;;5114696;28;20237;-62
2022/10/17 07:04:21;;;;;;;1.30;1.20;;;15.60;99.90;;;;;;5114758;28;20217;-61
2022/10/17 07:06:47;;;;;;;1.17;1.00;;;15.70;99.90;;;;;;5112748;28;20208;-60
2022/10/17 07:09:15;;;;;;;1.43;1.20;;;15.70;99.90;;;;;;5116267;27;20234;-61
2022/10/17 07:11:42;;;;;;;1.30;1.20;;;15.80;99.90;;;;;;5115332;28;20225;-62
2022/10/17 07:14:09;;;;;;;1.40;1.00;;;15.80;99.90;;;;;;5101429;28;20198;-62
2022/10/17 07:16:36;;;;;;;1.00;1.00;;;15.90;99.90;;;;;;5111523;28;20235;-62
2022/10/17 07:19:03;;;;;;;1.23;1.13;;;15.90;99.90;;;;;;5117126;27;20211;-62
2022/10/17 07:21:32;;;;;;;0.90;0.90;;;16.00;99.90;;;;;;5112637;28;20766;-61
2022/10/17 07:23:58;;;;;;;1.13;1.03;;;16.10;99.90;;;;;;5114030;28;20419;-60
2022/10/17 07:26:25;;;;;;;1.00;1.00;;;16.20;99.90;;;;;;5113273;28;20202;-62
2022/10/17 07:28:54;;;;;;;1.37;1.10;;;16.30;99.90;;;;;;5114102;28;20210;-62
2022/10/17 07:31:22;;;;;;;1.23;1.20;;;16.40;99.90;;;;;;5113828;28;20221;-61
2022/10/17 07:33:49;;;;;;;1.00;1.00;;;16.40;99.90;;;;;;5116920;22;20234;-68
2022/10/17 07:36:17;;;;;;;1.20;1.10;;;16.50;99.90;;;;;;5085219;28;20206;-68
2022/10/17 07:38:45;;;;;;;1.20;1.10;;;16.50;99.90;;;;;;5092517;28;20672;-68
2022/10/17 07:41:12;;;;;;;1.00;0.90;;;16.60;99.90;;;;;;5077532;28;20199;-68
2022/10/17 07:43:41;;;;;;;0.80;0.80;;;16.70;99.90;;;;;;5092157;28;20227;-69
2022/10/17 07:46:10;;;;;;;0.90;0.90;;;16.80;99.90;;;;;;5093643;28;20252;-69
2022/10/17 07:48:37;;;;;;;0.90;0.90;;;17.00;99.90;;;;;;5091482;28;20198;-68
2022/10/17 07:51:05;;;;;;;1.80;1.30;;;17.10;99.90;;;;;;5091407;28;20627;-70
2022/10/17 07:53:34;;;;;;;1.53;1.20;;;17.20;99.90;;;;;;5083617;28;20219;-69
2022/10/17 07:56:06;;;;;;;1.87;1.43;;;17.30;99.90;;;;;;5092179;28;20213;-69
2022/10/17 07:58:33;;;;;;;0.90;0.90;;;17.40;99.90;;;;;;5089721;28;20206;-68
2022/10/17 08:01:01;;;;;;;1.10;1.10;;;17.50;99.90;;;;;;5092952;28;20206;-69
2022/10/17 08:03:28;;;;;;;0.90;0.90;;;17.60;99.90;;;;;;5092582;28;20226;-69
2022/10/17 08:05:57;;;;;;;2.40;1.17;;;17.70;99.90;;;;;;5082185;28;20676;-68
2022/10/17 08:08:24;;;;;;;1.23;1.03;;;17.80;99.90;;;;;;5080261;28;20209;-68
2022/10/17 08:10:52;;;;;;;1.10;1.00;;;17.80;99.90;;;;;;5085770;28;20215;-68
2022/10/17 08:13:20;;;;;;;1.30;0.90;;;17.90;99.90;;;;;;5092256;28;20221;-68
2022/10/17 08:15:47;;;;;;;0.90;0.90;;;17.90;99.90;;;;;;5086732;28;20206;-69
2022/10/17 08:18:14;;;;;;;0.93;0.87;;;18.00;99.90;;;;;;5088002;28;20206;-69
2022/10/17 08:20:42;;;;;;;2.13;1.20;;;18.10;99.90;;;;;;5085469;28;20198;-69
2022/10/17 08:23:08;;;;;;;0.97;0.97;;;18.20;99.90;;;;;;5091028;28;20220;-69
2022/10/17 08:25:38;;;;;;;1.00;1.00;;;18.30;99.90;;;;;;5086148;28;20202;-69
2022/10/17 08:28:05;;;;;;;1.23;1.10;;;18.30;99.90;;;;;;5087357;28;20600;-67
2022/10/17 08:30:33;;;;;;;1.03;0.87;;;18.40;99.90;;;;;;5092235;28;20199;-68
2022/10/17 08:33:00;;;;;;;0.87;0.87;;;18.50;99.90;;;;;;5077790;28;20696;-68
2022/10/17 08:35:27;;;;;;;1.00;1.00;;;18.70;99.90;;;;;;5085832;28;20223;-68
2022/10/17 08:37:54;;;;;;;1.73;1.20;;;18.90;99.90;;;;;;5096979;28;20286;-69
2022/10/17 08:40:24;;;;;;;1.27;1.10;;;19.00;99.90;;;;;;5081787;28;20283;-69
2022/10/17 08:43:18;;;;;;;1.40;1.30;;;19.20;99.90;;;;;;5083646;28;20231;-67
2022/10/17 08:45:51;;;;;;;1.10;1.10;;;19.40;99.90;;;;;;5085010;28;20210;-68
2022/10/17 08:48:20;;;;;;;1.13;1.03;;;19.60;99.90;;;;;;5095486;28;20208;-68
2022/10/17 08:50:52;;;;;;;0.97;0.97;;;19.80;99.90;;;;;;5087424;28;20203;-68
2022/10/17 08:53:22;;;;;;;0.90;0.90;;;20.00;99.90;;;;;;5079182;28;20221;-67
2022/10/17 08:55:51;;;;;;;1.30;1.20;;;20.20;99.90;;;;;;5083074;28;20568;-68
2022/10/17 08:58:20;;;;;;;1.33;1.20;;;20.20;99.90;;;;;;5090426;28;20571;-69
2022/10/17 09:00:58;;;;;;;0.90;0.90;;;20.40;99.90;;;;;;5088852;28;20215;-68
2022/10/17 09:03:49;;;;;;;1.00;1.00;;;20.50;99.90;;;;;;5090504;28;20691;-69
2022/10/17 09:06:23;;;;;;;1.10;1.00;;;20.70;99.90;;;;;;5085744;28;20195;-68
2022/10/17 09:09:02;;;;;;;2.10;1.27;;;20.90;99.90;;;;;;5079055;28;20202;-69
2022/10/17 09:11:43;;;;;;;1.00;1.00;;;21.00;99.90;;;;;;5080300;28;20199;-69
2022/10/17 09:14:33;;;;;;;1.70;1.00;;;21.20;99.90;;;;;;5088668;28;20218;-70
2022/10/17 09:17:10;;;;;;;1.00;0.97;;;21.40;99.90;;;;;;5083465;28;20567;-68
2022/10/17 09:19:43;;;;;;;0.90;0.90;;;21.50;99.90;;;;;;5083733;28;20199;-69
2022/10/17 09:22:14;;;;;;;0.90;0.90;;;21.60;99.90;;;;;;5083644;28;20200;-69
2022/10/17 09:24:45;;;;;;;0.90;0.90;;;21.60;99.90;;;;;;5089165;28;20213;-68
2022/10/17 09:27:24;;;;;;;1.00;1.00;;;21.70;99.90;;;;;;5090892;28;20209;-69
2022/10/17 09:29:55;;;;;;;1.00;1.00;;;21.80;99.90;;;;;;5089133;28;20293;-69
2022/10/17 09:32:25;;;;;;;1.17;1.07;;;22.00;99.90;;;;;;5085908;28;20916;-69
2022/10/17 09:34:53;;;;;;;1.17;1.07;;;21.90;99.90;;;;;;5085064;28;20199;-69
2022/10/17 09:37:29;;;;;;;2.20;1.30;;;22.00;99.90;;;;;;5085228;28;20194;-68
2022/10/17 09:39:56;;;;;;;1.13;1.00;;;22.00;99.90;;;;;;5082017;28;20566;-68
2022/10/17 09:42:26;;;;;;;1.27;1.10;;;21.90;99.90;;;;;;5087503;28;20219;-68
2022/10/17 09:45:03;;;;;;;0.80;0.80;;;21.80;99.90;;;;;;5083319;28;20227;-68
2022/10/17 09:47:38;;;;;;;1.07;1.00;;;21.90;99.90;;;;;;5091522;28;20222;-69
2022/10/17 09:50:14;;;;;;;1.20;1.10;;;22.10;99.90;;;;;;5085446;28;20202;-67
2022/10/17 09:52:46;;;;;;;1.13;1.00;;;22.20;99.90;;;;;;5088830;28;20222;-67
2022/10/17 09:55:20;;;;;;;1.20;1.10;;;22.30;99.90;;;;;;5085922;28;20198;-68
2022/10/17 09:57:56;;;;;;;0.83;0.80;;;22.40;99.90;;;;;;5091959;28;20203;-69
2022/10/17 10:00:26;;;;;;;2.23;1.20;;;22.30;99.90;;;;;;5082782;28;20198;-69
2022/10/17 10:03:14;;;;;;;1.23;1.13;;;22.50;99.90;;;;;;5089629;28;20222;-69
2022/10/17 10:05:42;;;;;;;0.97;0.97;;;22.50;99.90;;;;;;5079645;28;20679;-70
2022/10/17 10:08:14;;;;;;;1.40;1.30;;;22.70;99.90;;;;;;5086348;28;20669;-70
2022/10/17 10:10:42;;;;;;;1.10;1.00;;;22.80;99.90;;;;;;5089626;28;20214;-68
2022/10/17 10:13:19;;;;;;;0.80;0.80;;;22.80;99.90;;;;;;5091318;28;20636;-69
2022/10/17 10:15:47;;;;;;;1.37;1.00;;;22.80;99.90;;;;;;5086960;28;20202;-69
2022/10/17 10:18:34;;;;;;;1.17;1.08;;;22.80;99.90;;;;;;5084276;28;20286;-68
2022/10/17 10:21:08;;;;;;;0.90;0.87;;;22.80;99.90;;;;;;5088155;28;20202;-69
2022/10/17 10:23:38;;;;;;;1.27;1.03;;;22.70;99.90;;;;;;5083118;28;20234;-71
2022/10/17 10:26:22;;;;;;;0.90;0.90;;;22.70;99.90;;;;;;5089579;28;20252;-69
2022/10/17 10:28:56;;;;;;;1.07;1.00;;;22.90;99.90;;;;;;5084746;28;20286;-70
2022/10/17 10:31:32;;;;;;;1.17;1.07;;;23.00;99.90;;;;;;5094604;28;20218;-70
2022/10/17 10:34:03;;;;;;;0.80;0.80;;;23.30;99.90;;;;;;5086747;28;20236;-70
2022/10/17 10:36:57;;;;;;;1.00;0.90;;;23.40;99.90;;;;;;5082945;28;20276;-68
2022/10/17 10:39:33;;;;;;;0.80;0.80;;;23.50;99.90;;;;;;5089686;28;20213;-69
2022/10/17 10:42:02;;;;;;;0.90;0.90;;;23.50;99.90;;;;;;5096956;28;20270;-69
2022/10/17 10:44:32;;;;;;;1.10;1.00;;;23.70;99.90;;;;;;5092657;28;20595;-68
2022/10/17 10:47:24;;;;;;;0.90;0.90;;;23.70;99.90;;;;;;5087981;28;20202;-68
2022/10/17 10:50:08;;;;;;;0.90;0.90;;;23.80;99.90;;;;;;5074423;28;20207;-69
2022/10/17 10:52:43;;;;;;;1.10;1.10;;;23.80;99.90;;;;;;5091130;28;20219;-68
2022/10/17 10:55:23;;;;;;;1.23;0.90;;;23.90;99.90;;;;;;5085738;28;20236;-67
2022/10/17 10:57:53;;;;;;;1.58;1.20;;;24.00;99.90;;;;;;5088916;28;20592;-69
2022/10/17 11:00:24;;;;;;;1.03;1.00;;;24.20;99.90;;;;;;5082761;28;20215;-67
2022/10/17 11:02:59;;;;;;;1.20;1.10;;;24.20;99.90;;;;;;5085570;28;20229;-68
2022/10/17 11:05:37;;;;;;;1.20;1.10;;;24.40;99.90;;;;;;5085441;28;20210;-68
2022/10/17 11:08:12;;;;;;;0.80;0.80;;;24.50;99.90;;;;;;5072951;28;20217;-70
2022/10/17 11:10:57;;;;;;;0.80;0.80;;;24.60;99.90;;;;;;5082409;28;20198;-69
2022/10/17 11:13:27;;;;;;;1.37;0.90;;;24.70;99.90;;;;;;5085549;28;20348;-69
2022/10/17 11:16:02;;;;;;;1.23;1.00;;;24.80;99.90;;;;;;5087228;28;20207;-69
2022/10/17 11:18:34;;;;;;;1.15;0.77;;;25.00;99.90;;;;;;5089233;28;20215;-68
2022/10/17 11:21:06;;;;;;;0.70;0.70;;;25.10;99.90;;;;;;5084822;28;20234;-71
2022/10/17 11:23:40;;;;;;;1.05;0.80;;;25.20;99.90;;;;;;5086385;28;20219;-68
2022/10/17 11:26:13;;;;;;;0.60;0.60;;;25.30;99.90;;;;;;5079141;28;20225;-69
2022/10/17 11:28:40;;;;;;;0.90;0.82;;;25.30;99.90;;;;;;5078711;28;20200;-68
2022/10/17 11:31:10;;;;;;;0.80;0.80;;;25.30;99.90;;;;;;5076083;28;20211;-70
2022/10/17 11:33:45;;;;;;;1.15;1.00;;;25.30;99.90;;;;;;5086536;28;20252;-69
2022/10/17 11:36:17;;;;;;;0.75;0.75;;;25.30;99.90;;;;;;5089028;28;20735;-68
2022/10/17 11:38:49;;;;;;;1.10;1.00;;;25.40;99.90;;;;;;5086035;28;20213;-69
2022/10/17 11:41:21;;;;;;;0.80;0.80;;;25.40;99.90;;;;;;5087613;28;20593;-67
2022/10/17 11:43:54;;;;;;;0.75;0.75;;;25.50;99.90;;;;;;5081585;28;20321;-68
2022/10/17 11:46:23;;;;;;;0.98;0.82;;;25.60;99.90;;;;;;5085278;28;20590;-70
2022/10/17 11:48:59;;;;;;;0.70;0.70;;;25.60;99.90;;;;;;5081206;28;20196;-67
2022/10/17 11:51:30;;;;;;;1.33;0.80;;;25.60;99.90;;;;;;5080913;28;20209;-67
2022/10/17 11:54:04;;;;;;;0.93;0.93;;;25.50;99.90;;;;;;5085585;28;20222;-70
2022/10/17 11:56:36;;;;;;;0.77;0.77;;;25.50;99.90;;;;;;5089595;28;20202;-69
2022/10/17 11:59:21;;;;;;;0.87;0.60;;;25.50;99.90;;;;;;5081184;28;20198;-68
2022/10/17 12:01:56;;;;;;;0.70;0.70;;;25.60;99.90;;;;;;5089054;28;20225;-68
2022/10/17 12:04:36;;;;;;;0.80;0.80;;;25.60;99.90;;;;;;5088857;28;20222;-69
2022/10/17 12:07:13;;;;;;;0.80;0.80;;;25.70;99.90;;;;;;5090574;28;20560;-68
2022/10/17 12:09:46;;;;;;;0.90;0.90;;;25.70;99.90;;;;;;5084865;28;20573;-68
2022/10/17 12:12:24;;;;;;;1.00;0.90;;;25.70;99.90;;;;;;5086239;28;20630;-70
2022/10/17 12:14:52;;;;;;;0.80;0.80;;;25.80;99.90;;;;;;5088691;28;20190;-69
2022/10/17 12:17:31;;;;;;;0.80;0.80;;;25.80;99.90;;;;;;5083027;28;20302;-69
2022/10/17 12:20:24;;;;;;;0.82;0.70;;;25.70;99.90;;;;;;5091281;28;20733;-69
2022/10/17 12:22:54;;;;;;;0.60;0.60;;;25.70;99.90;;;;;;5085165;28;20302;-68
2022/10/17 12:25:23;;;;;;;0.80;0.80;;;25.80;99.90;;;;;;5087071;28;20219;-68
2022/10/17 12:27:51;;;;;;;0.75;0.75;;;25.80;99.90;;;;;;5089564;28;20218;-67
2022/10/17 12:30:22;;;;;;;0.90;0.90;;;25.80;99.90;;;;;;5088775;28;20203;-69
2022/10/17 12:33:20;;;;;;;0.70;0.70;;;25.90;99.90;;;;;;5091468;28;20320;-69
2022/10/17 12:35:49;;;;;;;1.13;1.02;;;25.80;99.90;;;;;;5097958;28;20226;-69
2022/10/17 12:38:26;;;;;;;1.75;0.90;;;25.80;99.90;;;;;;5090619;28;20536;-68
2022/10/17 12:40:58;;;;;;;0.98;0.93;;;25.90;99.90;;;;;;5080744;28;20665;-70
2022/10/17 12:43:55;;;;;;;1.02;0.90;;;25.90;99.90;;;;;;5086167;28;20218;-69
2022/10/17 12:46:47;;;;;;;0.75;0.75;;;25.90;99.90;;;;;;5077650;28;20219;-68
2022/10/17 12:49:36;;;;;;;1.05;0.98;;;26.00;99.90;;;;;;5077774;28;20207;-69
2022/10/17 12:52:21;;;;;;;1.15;1.02;;;26.00;99.90;;;;;;5080260;28;20201;-68
2022/10/17 12:54:54;;;;;;;1.00;1.00;;;25.90;99.90;;;;;;5095584;28;20221;-69
2022/10/17 12:57:27;;;;;;;0.98;0.98;;;25.90;99.90;;;;;;5084495;28;20194;-69
2022/10/17 12:59:54;;;;;;;0.68;0.68;;;25.90;99.90;;;;;;5091754;28;20298;-69
2022/10/17 13:02:24;;;;;;;0.80;0.80;;;25.90;99.90;;;;;;5081072;28;20226;-68
2022/10/17 13:04:57;;;;;;;0.93;0.90;;;25.90;99.90;;;;;;5081825;28;20227;-69
2022/10/17 13:07:25;;;;;;;0.73;0.73;;;25.90;99.90;;;;;;5086472;28;20198;-67